sensor_id;sensor_type;location;lat;lon;timestamp;pressure;altitude;pressure_sealevel;temperature;humidity
73936;BME280;62287;50.858;0.252;2023-04-01T00:00:13;99620.47;;;14.56;40.45
73936;BME280;62287;50.858;0.252;2023-04-01T00:00:44;99623.33;;;14.36;40.56
73936;BME280;62287;50.858;0.252;2023-04-01T00:01:16;99623.81;;;14.44;40.71
73936;BME280;62287;50.858;0.252;2023-04-01T00:01:47;99623.26;;;14.66;40.72
73936;BME280;62287;50.858;0.252;2023-04-01T00:02:18;99624.47;;;14.60;40.78
73936;BME280;62287;50.858;0.252;2023-04-01T00:02:48;99623.22;;;13.99;40.71
73936;BME280;62287;50.858;0.252;2023-04-01T00:03:20;99625.70;;;14.60;40.71
73936;BME280;62287;50.858;0.252;2023-04-01T00:03:51;99625.40;;;14.22;40.66
73936;BME280;62287;50.858;0.252;2023-04-01T00:04:22;99627.95;;;14.21;40.61
73936;BME280;62287;50.858;0.252;2023-04-01T00:04:53;99627.94;;;13.93;40.64
73936;BME280;62287;50.858;0.252;2023-04-01T00:05:24;99626.46;;;14.31;40.58
73936;BME280;62287;50.858;0.252;2023-04-01T00:05:56;99632.37;;;14.43;40.55
73936;BME280;62287;50.858;0.252;2023-04-01T00:06:28;99628.50;;;14.53;40.60
73936;BME280;62287;50.858;0.252;2023-04-01T00:06:59;99632.04;;;14.85;40.53
73936;BME280;62287;50.858;0.252;2023-04-01T00:07:30;99635.27;;;13.96;40.54
73936;BME280;62287;50.858;0.252;2023-04-01T00:08:03;99628.20;;;14.19;40.67
73936;BME280;62287;50.858;0.252;2023-04-01T00:08:34;99629.43;;;14.49;40.65
73936;BME280;62287;50.858;0.252;2023-04-01T00:09:05;99632.50;;;13.74;40.66
73936;BME280;62287;50.858;0.252;2023-04-01T00:09:36;99630.30;;;14.53;40.78
73936;BME280;62287;50.858;0.252;2023-04-01T00:10:09;99634.58;;;14.08;40.79
73936;BME280;62287;50.858;0.252;2023-04-01T00:10:40;99629.86;;;14.13;40.77
73936;BME280;62287;50.858;0.252;2023-04-01T00:11:11;99630.57;;;13.98;40.76
73936;BME280;62287;50.858;0.252;2023-04-01T00:11:43;99633.47;;;13.59;40.76
73936;BME280;62287;50.858;0.252;2023-04-01T00:12:14;99631.27;;;13.91;41.00
73936;BME280;62287;50.858;0.252;2023-04-01T00:12:45;99634.44;;;13.63;41.07
73936;BME280;62287;50.858;0.252;2023-04-01T00:13:16;99634.84;;;13.99;40.97
73936;BME280;62287;50.858;0.252;2023-04-01T00:13:47;99636.86;;;14.12;40.91
73936;BME280;62287;50.858;0.252;2023-04-01T00:14:18;99637.09;;;14.39;40.93
73936;BME280;62287;50.858;0.252;2023-04-01T00:14:49;99635.92;;;13.86;40.98
73936;BME280;62287;50.858;0.252;2023-04-01T00:15:20;99639.24;;;14.36;41.00
73936;BME280;62287;50.858;0.252;2023-04-01T00:15:52;99635.03;;;13.50;41.00
73936;BME280;62287;50.858;0.252;2023-04-01T00:16:23;99638.22;;;13.94;41.02
73936;BME280;62287;50.858;0.252;2023-04-01T00:16:54;99634.48;;;13.69;41.14
73936;BME280;62287;50.858;0.252;2023-04-01T00:17:25;99633.08;;;14.08;41.20
73936;BME280;62287;50.858;0.252;2023-04-01T00:17:56;99634.67;;;13.73;41.24
73936;BME280;62287;50.858;0.252;2023-04-01T00:18:27;99639.06;;;14.20;41.23
73936;BME280;62287;50.858;0.252;2023-04-01T00:18:58;99638.13;;;13.94;41.30
73936;BME280;62287;50.858;0.252;2023-04-01T00:19:29;99635.16;;;13.23;41.33
73936;BME280;62287;50.858;0.252;2023-04-01T00:20:04;99640.41;;;13.43;41.17
73936;BME280;62287;50.858;0.252;2023-04-01T00:20:36;99636.69;;;14.00;41.03
73936;BME280;62287;50.858;0.252;2023-04-01T00:21:07;99637.48;;;14.57;40.96
73936;BME280;62287;50.858;0.252;2023-04-01T00:21:38;99640.45;;;13.80;40.79
73936;BME280;62287;50.858;0.252;2023-04-01T00:22:09;99642.20;;;14.31;40.75
73936;BME280;62287;50.858;0.252;2023-04-01T00:22:40;99639.58;;;14.18;40.79
73936;BME280;62287;50.858;0.252;2023-04-01T00:23:11;99642.49;;;14.57;40.79
73936;BME280;62287;50.858;0.252;2023-04-01T00:23:43;99645.41;;;14.11;40.91
73936;BME280;62287;50.858;0.252;2023-04-01T00:24:14;99645.79;;;13.95;41.07
73936;BME280;62287;50.858;0.252;2023-04-01T00:24:45;99643.87;;;13.95;40.83
73936;BME280;62287;50.858;0.252;2023-04-01T00:25:16;99645.42;;;13.96;40.72
73936;BME280;62287;50.858;0.252;2023-04-01T00:25:48;99644.92;;;14.01;40.71
73936;BME280;62287;50.858;0.252;2023-04-01T00:26:19;99644.00;;;13.86;40.77
73936;BME280;62287;50.858;0.252;2023-04-01T00:26:50;99649.47;;;14.71;40.62
73936;BME280;62287;50.858;0.252;2023-04-01T00:27:21;99649.10;;;14.34;40.59
73936;BME280;62287;50.858;0.252;2023-04-01T00:27:53;99649.69;;;14.46;40.58
73936;BME280;62287;50.858;0.252;2023-04-01T00:28:24;99649.65;;;14.94;40.57
73936;BME280;62287;50.858;0.252;2023-04-01T00:28:55;99649.19;;;14.38;40.55
73936;BME280;62287;50.858;0.252;2023-04-01T00:29:31;99651.29;;;13.92;40.80
73936;BME280;62287;50.858;0.252;2023-04-01T00:30:04;99652.94;;;14.18;40.76
73936;BME280;62287;50.858;0.252;2023-04-01T00:30:36;99651.90;;;14.27;40.71
73936;BME280;62287;50.858;0.252;2023-04-01T00:31:09;99651.13;;;13.82;40.89
73936;BME280;62287;50.858;0.252;2023-04-01T00:31:40;99653.99;;;14.31;40.82
73936;BME280;62287;50.858;0.252;2023-04-01T00:32:11;99653.12;;;13.86;40.97
73936;BME280;62287;50.858;0.252;2023-04-01T00:32:43;99654.03;;;14.23;40.89
73936;BME280;62287;50.858;0.252;2023-04-01T00:33:14;99654.63;;;13.65;40.97
73936;BME280;62287;50.858;0.252;2023-04-01T00:33:45;99656.68;;;14.09;41.06
73936;BME280;62287;50.858;0.252;2023-04-01T00:34:17;99656.84;;;14.19;40.96
73936;BME280;62287;50.858;0.252;2023-04-01T00:34:50;99656.56;;;14.40;40.97
73936;BME280;62287;50.858;0.252;2023-04-01T00:35:21;99655.41;;;14.44;40.96
73936;BME280;62287;50.858;0.252;2023-04-01T00:35:52;99656.24;;;14.19;40.88
73936;BME280;62287;50.858;0.252;2023-04-01T00:36:23;99658.57;;;14.19;40.97
73936;BME280;62287;50.858;0.252;2023-04-01T00:36:54;99660.92;;;14.55;40.92
73936;BME280;62287;50.858;0.252;2023-04-01T00:37:25;99656.24;;;14.27;41.06
73936;BME280;62287;50.858;0.252;2023-04-01T00:37:56;99659.53;;;13.85;40.98
73936;BME280;62287;50.858;0.252;2023-04-01T00:38:27;99663.12;;;14.38;40.84
73936;BME280;62287;50.858;0.252;2023-04-01T00:38:58;99662.23;;;13.80;40.83
73936;BME280;62287;50.858;0.252;2023-04-01T00:39:30;99663.49;;;13.92;40.82
73936;BME280;62287;50.858;0.252;2023-04-01T00:40:04;99665.60;;;14.28;40.81
73936;BME280;62287;50.858;0.252;2023-04-01T00:40:37;99663.79;;;14.03;40.62
73936;BME280;62287;50.858;0.252;2023-04-01T00:41:11;99668.40;;;14.01;40.71
73936;BME280;62287;50.858;0.252;2023-04-01T00:41:43;99665.91;;;14.39;40.65
73936;BME280;62287;50.858;0.252;2023-04-01T00:42:14;99666.39;;;13.84;40.79
73936;BME280;62287;50.858;0.252;2023-04-01T00:42:45;99670.86;;;14.20;40.78
73936;BME280;62287;50.858;0.252;2023-04-01T00:43:18;99666.93;;;14.25;40.89
73936;BME280;62287;50.858;0.252;2023-04-01T00:44:11;99667.57;;;13.75;40.92
73936;BME280;62287;50.858;0.252;2023-04-01T00:44:47;99671.20;;;14.25;40.83
73936;BME280;62287;50.858;0.252;2023-04-01T00:45:31;99668.85;;;13.83;40.96
73936;BME280;62287;50.858;0.252;2023-04-01T00:46:03;99670.62;;;13.62;41.17
73936;BME280;62287;50.858;0.252;2023-04-01T00:46:33;99668.73;;;14.19;41.07
73936;BME280;62287;50.858;0.252;2023-04-01T00:47:05;99669.30;;;13.90;41.24
73936;BME280;62287;50.858;0.252;2023-04-01T00:47:35;99675.84;;;13.55;41.25
73936;BME280;62287;50.858;0.252;2023-04-01T00:48:10;99671.37;;;14.04;41.11
73936;BME280;62287;50.858;0.252;2023-04-01T00:48:44;99672.66;;;13.75;41.04
73936;BME280;62287;50.858;0.252;2023-04-01T00:49:19;99669.75;;;13.93;41.03
73936;BME280;62287;50.858;0.252;2023-04-01T00:49:52;99674.43;;;13.90;41.00
73936;BME280;62287;50.858;0.252;2023-04-01T00:50:25;99670.60;;;14.16;41.00
73936;BME280;62287;50.858;0.252;2023-04-01T00:51:00;99672.59;;;13.75;40.97
73936;BME280;62287;50.858;0.252;2023-04-01T00:51:32;99676.85;;;13.93;40.85
73936;BME280;62287;50.858;0.252;2023-04-01T00:52:04;99675.05;;;14.08;40.96
73936;BME280;62287;50.858;0.252;2023-04-01T00:52:36;99677.70;;;14.24;41.06
73936;BME280;62287;50.858;0.252;2023-04-01T00:53:08;99678.36;;;13.88;40.89
73936;BME280;62287;50.858;0.252;2023-04-01T00:53:41;99677.86;;;13.71;41.04
73936;BME280;62287;50.858;0.252;2023-04-01T00:54:14;99676.46;;;14.52;41.07
73936;BME280;62287;50.858;0.252;2023-04-01T00:54:49;99679.98;;;13.93;41.28
73936;BME280;62287;50.858;0.252;2023-04-01T00:55:22;99685.25;;;13.51;41.34
73936;BME280;62287;50.858;0.252;2023-04-01T00:55:58;99679.04;;;13.54;41.45
73936;BME280;62287;50.858;0.252;2023-04-01T00:56:32;99685.91;;;13.44;41.34
73936;BME280;62287;50.858;0.252;2023-04-01T00:57:07;99687.18;;;13.49;41.30
73936;BME280;62287;50.858;0.252;2023-04-01T00:57:40;99685.41;;;13.84;41.25
73936;BME280;62287;50.858;0.252;2023-04-01T00:58:15;99689.07;;;13.46;41.39
73936;BME280;62287;50.858;0.252;2023-04-01T00:58:50;99684.21;;;13.44;41.36
73936;BME280;62287;50.858;0.252;2023-04-01T00:59:25;99687.25;;;13.88;41.34
73936;BME280;62287;50.858;0.252;2023-04-01T00:59:56;99685.17;;;13.47;41.38
73936;BME280;62287;50.858;0.252;2023-04-01T01:00:27;99685.60;;;13.79;41.35
73936;BME280;62287;50.858;0.252;2023-04-01T01:00:59;99687.37;;;13.81;41.41
73936;BME280;62287;50.858;0.252;2023-04-01T01:01:32;99691.07;;;13.42;41.34
73936;BME280;62287;50.858;0.252;2023-04-01T01:02:05;99687.45;;;13.72;41.37
73936;BME280;62287;50.858;0.252;2023-04-01T01:02:38;99691.61;;;13.78;41.33
73936;BME280;62287;50.858;0.252;2023-04-01T01:03:11;99688.68;;;13.28;41.31
73936;BME280;62287;50.858;0.252;2023-04-01T01:03:42;99691.56;;;13.46;41.40
73936;BME280;62287;50.858;0.252;2023-04-01T01:04:30;99690.39;;;13.18;41.51
73936;BME280;62287;50.858;0.252;2023-04-01T01:05:03;99689.48;;;13.39;41.51
73936;BME280;62287;50.858;0.252;2023-04-01T01:05:44;99691.03;;;13.18;41.53
73936;BME280;62287;50.858;0.252;2023-04-01T01:06:28;99691.76;;;13.64;41.46
73936;BME280;62287;50.858;0.252;2023-04-01T01:07:12;99689.55;;;13.30;41.47
73936;BME280;62287;50.858;0.252;2023-04-01T01:07:54;99692.05;;;13.16;41.48
73936;BME280;62287;50.858;0.252;2023-04-01T01:08:39;99692.62;;;13.62;41.50
73936;BME280;62287;50.858;0.252;2023-04-01T01:09:28;99692.43;;;13.23;41.56
73936;BME280;62287;50.858;0.252;2023-04-01T01:10:09;99687.63;;;13.21;41.52
73936;BME280;62287;50.858;0.252;2023-04-01T01:10:43;99690.14;;;13.73;41.52
73936;BME280;62287;50.858;0.252;2023-04-01T01:11:24;99692.62;;;13.95;41.45
73936;BME280;62287;50.858;0.252;2023-04-01T01:12:05;99690.07;;;13.64;41.58
73936;BME280;62287;50.858;0.252;2023-04-01T01:12:41;99691.16;;;13.41;41.61
73936;BME280;62287;50.858;0.252;2023-04-01T01:13:18;99693.40;;;13.43;41.61
73936;BME280;62287;50.858;0.252;2023-04-01T01:14:00;99690.49;;;13.24;41.52
73936;BME280;62287;50.858;0.252;2023-04-01T01:14:40;99693.36;;;13.34;41.49
73936;BME280;62287;50.858;0.252;2023-04-01T01:15:20;99694.94;;;13.65;41.55
73936;BME280;62287;50.858;0.252;2023-04-01T01:15:58;99696.07;;;13.57;41.42
73936;BME280;62287;50.858;0.252;2023-04-01T01:16:35;99693.95;;;14.09;41.45
73936;BME280;62287;50.858;0.252;2023-04-01T01:17:15;99697.23;;;13.43;41.55
73936;BME280;62287;50.858;0.252;2023-04-01T01:17:55;99695.32;;;13.03;41.59
73936;BME280;62287;50.858;0.252;2023-04-01T01:18:35;99695.12;;;13.54;41.56
73936;BME280;62287;50.858;0.252;2023-04-01T01:19:11;99696.74;;;13.08;41.60
73936;BME280;62287;50.858;0.252;2023-04-01T01:20:05;99697.10;;;13.54;41.55
73936;BME280;62287;50.858;0.252;2023-04-01T01:20:52;99692.76;;;13.86;41.60
73936;BME280;62287;50.858;0.252;2023-04-01T01:21:42;99698.82;;;13.52;41.59
73936;BME280;62287;50.858;0.252;2023-04-01T01:22:33;99697.24;;;13.49;41.53
73936;BME280;62287;50.858;0.252;2023-04-01T01:23:37;99698.76;;;13.98;41.59
73936;BME280;62287;50.858;0.252;2023-04-01T01:24:30;99702.40;;;13.09;41.51
73936;BME280;62287;50.858;0.252;2023-04-01T01:25:16;99700.23;;;13.53;41.47
73936;BME280;62287;50.858;0.252;2023-04-01T01:25:59;99699.30;;;13.35;41.51
73936;BME280;62287;50.858;0.252;2023-04-01T01:26:47;99704.08;;;13.33;41.68
73936;BME280;62287;50.858;0.252;2023-04-01T01:27:22;99705.07;;;13.38;41.67
73936;BME280;62287;50.858;0.252;2023-04-01T01:28:06;99704.99;;;13.43;41.73
73936;BME280;62287;50.858;0.252;2023-04-01T01:28:53;99707.95;;;13.09;41.69
73936;BME280;62287;50.858;0.252;2023-04-01T01:29:43;99706.43;;;13.09;41.62
73936;BME280;62287;50.858;0.252;2023-04-01T01:30:25;99707.44;;;13.38;41.67
73936;BME280;62287;50.858;0.252;2023-04-01T01:31:08;99710.65;;;13.58;41.73
73936;BME280;62287;50.858;0.252;2023-04-01T01:31:49;99709.28;;;12.98;41.61
73936;BME280;62287;50.858;0.252;2023-04-01T01:32:36;99713.72;;;13.02;41.56
73936;BME280;62287;50.858;0.252;2023-04-01T01:33:21;99707.39;;;13.30;41.67
73936;BME280;62287;50.858;0.252;2023-04-01T01:34:04;99711.49;;;13.41;41.66
73936;BME280;62287;50.858;0.252;2023-04-01T01:34:49;99715.68;;;13.23;41.60
73936;BME280;62287;50.858;0.252;2023-04-01T01:35:24;99710.42;;;13.40;41.52
73936;BME280;62287;50.858;0.252;2023-04-01T01:35:57;99711.22;;;13.80;41.60
73936;BME280;62287;50.858;0.252;2023-04-01T01:36:32;99713.71;;;13.85;41.56
73936;BME280;62287;50.858;0.252;2023-04-01T01:37:06;99717.55;;;13.93;41.58
73936;BME280;62287;50.858;0.252;2023-04-01T01:37:40;99714.37;;;13.41;41.58
73936;BME280;62287;50.858;0.252;2023-04-01T01:38:15;99716.05;;;13.95;41.55
73936;BME280;62287;50.858;0.252;2023-04-01T01:38:48;99716.52;;;13.46;41.55
73936;BME280;62287;50.858;0.252;2023-04-01T01:39:21;99714.42;;;13.42;41.55
73936;BME280;62287;50.858;0.252;2023-04-01T01:39:59;99716.13;;;13.05;41.55
73936;BME280;62287;50.858;0.252;2023-04-01T01:40:33;99720.47;;;13.57;41.55
73936;BME280;62287;50.858;0.252;2023-04-01T01:41:07;99716.59;;;13.03;41.56
73936;BME280;62287;50.858;0.252;2023-04-01T01:41:39;99718.97;;;13.06;41.63
73936;BME280;62287;50.858;0.252;2023-04-01T01:42:15;99719.66;;;13.06;41.60
73936;BME280;62287;50.858;0.252;2023-04-01T01:42:50;99721.94;;;13.45;41.64
73936;BME280;62287;50.858;0.252;2023-04-01T01:43:25;99720.78;;;13.51;41.54
73936;BME280;62287;50.858;0.252;2023-04-01T01:43:59;99721.08;;;12.72;41.56
73936;BME280;62287;50.858;0.252;2023-04-01T01:44:33;99719.89;;;13.35;41.55
73936;BME280;62287;50.858;0.252;2023-04-01T01:45:09;99721.98;;;13.11;41.52
73936;BME280;62287;50.858;0.252;2023-04-01T01:45:44;99720.75;;;13.16;41.50
73936;BME280;62287;50.858;0.252;2023-04-01T01:46:20;99723.42;;;13.57;41.51
73936;BME280;62287;50.858;0.252;2023-04-01T01:46:53;99724.81;;;13.80;41.48
73936;BME280;62287;50.858;0.252;2023-04-01T01:47:25;99727.24;;;13.08;41.55
73936;BME280;62287;50.858;0.252;2023-04-01T01:47:57;99724.87;;;13.58;41.52
73936;BME280;62287;50.858;0.252;2023-04-01T01:48:29;99728.31;;;13.14;41.49
73936;BME280;62287;50.858;0.252;2023-04-01T01:49:03;99726.53;;;13.39;41.60
73936;BME280;62287;50.858;0.252;2023-04-01T01:49:36;99728.96;;;13.71;41.53
73936;BME280;62287;50.858;0.252;2023-04-01T01:50:08;99731.20;;;13.36;41.57
73936;BME280;62287;50.858;0.252;2023-04-01T01:50:40;99730.63;;;13.79;41.48
73936;BME280;62287;50.858;0.252;2023-04-01T01:51:12;99730.14;;;13.14;41.49
73936;BME280;62287;50.858;0.252;2023-04-01T01:51:42;99734.37;;;13.40;41.48
73936;BME280;62287;50.858;0.252;2023-04-01T01:52:13;99735.73;;;13.00;41.53
73936;BME280;62287;50.858;0.252;2023-04-01T01:52:44;99736.42;;;13.37;41.53
73936;BME280;62287;50.858;0.252;2023-04-01T01:53:15;99738.49;;;13.35;41.53
73936;BME280;62287;50.858;0.252;2023-04-01T01:53:46;99737.99;;;13.45;41.48
73936;BME280;62287;50.858;0.252;2023-04-01T01:54:18;99739.02;;;13.91;41.44
73936;BME280;62287;50.858;0.252;2023-04-01T01:54:49;99741.13;;;13.77;41.47
73936;BME280;62287;50.858;0.252;2023-04-01T01:55:27;99743.90;;;13.56;41.44
73936;BME280;62287;50.858;0.252;2023-04-01T01:55:59;99740.41;;;13.26;41.28
73936;BME280;62287;50.858;0.252;2023-04-01T01:56:30;99740.20;;;13.20;41.35
73936;BME280;62287;50.858;0.252;2023-04-01T01:57:06;99743.82;;;13.71;41.33
73936;BME280;62287;50.858;0.252;2023-04-01T01:57:38;99743.71;;;13.40;41.43
73936;BME280;62287;50.858;0.252;2023-04-01T01:58:13;99744.10;;;13.76;41.44
73936;BME280;62287;50.858;0.252;2023-04-01T01:58:48;99747.39;;;13.60;41.26
73936;BME280;62287;50.858;0.252;2023-04-01T01:59:21;99747.95;;;13.48;41.27
73936;BME280;62287;50.858;0.252;2023-04-01T01:59:56;99745.23;;;13.24;41.25
73936;BME280;62287;50.858;0.252;2023-04-01T02:00:29;99749.72;;;13.33;41.31
73936;BME280;62287;50.858;0.252;2023-04-01T02:01:04;99753.10;;;13.12;41.34
73936;BME280;62287;50.858;0.252;2023-04-01T02:01:39;99755.39;;;13.54;41.40
73936;BME280;62287;50.858;0.252;2023-04-01T02:02:13;99755.55;;;13.44;41.38
73936;BME280;62287;50.858;0.252;2023-04-01T02:02:47;99757.65;;;13.61;41.39
73936;BME280;62287;50.858;0.252;2023-04-01T02:03:20;99761.31;;;13.03;41.44
73936;BME280;62287;50.858;0.252;2023-04-01T02:03:54;99757.98;;;13.55;41.45
73936;BME280;62287;50.858;0.252;2023-04-01T02:04:26;99761.74;;;13.41;41.51
73936;BME280;62287;50.858;0.252;2023-04-01T02:04:58;99764.40;;;13.54;41.40
73936;BME280;62287;50.858;0.252;2023-04-01T02:05:30;99763.29;;;13.00;41.42
73936;BME280;62287;50.858;0.252;2023-04-01T02:06:05;99764.22;;;12.97;41.49
73936;BME280;62287;50.858;0.252;2023-04-01T02:06:42;99766.75;;;13.14;41.39
73936;BME280;62287;50.858;0.252;2023-04-01T02:07:19;99769.09;;;13.61;41.35
73936;BME280;62287;50.858;0.252;2023-04-01T02:07:57;99769.50;;;13.54;41.27
73936;BME280;62287;50.858;0.252;2023-04-01T02:08:33;99767.16;;;13.73;41.44
73936;BME280;62287;50.858;0.252;2023-04-01T02:09:08;99769.43;;;13.42;41.56
73936;BME280;62287;50.858;0.252;2023-04-01T02:09:39;99769.37;;;13.15;41.48
73936;BME280;62287;50.858;0.252;2023-04-01T02:10:11;99770.24;;;13.00;41.53
73936;BME280;62287;50.858;0.252;2023-04-01T02:10:45;99770.91;;;13.32;41.47
73936;BME280;62287;50.858;0.252;2023-04-01T02:11:26;99772.80;;;13.94;41.41
73936;BME280;62287;50.858;0.252;2023-04-01T02:12:02;99775.16;;;13.36;41.45
73936;BME280;62287;50.858;0.252;2023-04-01T02:12:36;99774.93;;;13.87;41.45
73936;BME280;62287;50.858;0.252;2023-04-01T02:13:14;99775.24;;;13.83;41.32
73936;BME280;62287;50.858;0.252;2023-04-01T02:13:50;99776.96;;;13.44;41.35
73936;BME280;62287;50.858;0.252;2023-04-01T02:14:24;99776.27;;;13.60;41.24
73936;BME280;62287;50.858;0.252;2023-04-01T02:14:59;99777.68;;;13.58;41.30
73936;BME280;62287;50.858;0.252;2023-04-01T02:15:40;99773.40;;;13.12;41.29
73936;BME280;62287;50.858;0.252;2023-04-01T02:16:14;99777.61;;;13.87;41.45
73936;BME280;62287;50.858;0.252;2023-04-01T02:16:53;99775.62;;;12.91;41.46
73936;BME280;62287;50.858;0.252;2023-04-01T02:17:29;99776.02;;;13.53;41.42
73936;BME280;62287;50.858;0.252;2023-04-01T02:18:02;99778.33;;;13.63;41.27
73936;BME280;62287;50.858;0.252;2023-04-01T02:18:35;99779.55;;;13.10;41.32
73936;BME280;62287;50.858;0.252;2023-04-01T02:19:07;99776.70;;;13.06;41.30
73936;BME280;62287;50.858;0.252;2023-04-01T02:19:45;99777.63;;;13.39;41.39
73936;BME280;62287;50.858;0.252;2023-04-01T02:20:20;99777.17;;;13.13;41.41
73936;BME280;62287;50.858;0.252;2023-04-01T02:20:53;99776.44;;;13.69;41.43
73936;BME280;62287;50.858;0.252;2023-04-01T02:21:27;99779.03;;;13.31;41.37
73936;BME280;62287;50.858;0.252;2023-04-01T02:22:04;99777.59;;;13.89;41.39
73936;BME280;62287;50.858;0.252;2023-04-01T02:22:39;99779.47;;;13.68;41.49
73936;BME280;62287;50.858;0.252;2023-04-01T02:23:12;99777.90;;;13.42;41.42
73936;BME280;62287;50.858;0.252;2023-04-01T02:23:45;99778.10;;;13.65;41.45
73936;BME280;62287;50.858;0.252;2023-04-01T02:24:18;99779.58;;;13.15;41.38
73936;BME280;62287;50.858;0.252;2023-04-01T02:24:52;99780.95;;;12.93;41.50
73936;BME280;62287;50.858;0.252;2023-04-01T02:25:27;99779.74;;;13.68;41.51
73936;BME280;62287;50.858;0.252;2023-04-01T02:25:59;99782.73;;;13.30;41.55
73936;BME280;62287;50.858;0.252;2023-04-01T02:26:31;99783.74;;;13.26;41.44
73936;BME280;62287;50.858;0.252;2023-04-01T02:27:03;99783.65;;;13.46;41.48
73936;BME280;62287;50.858;0.252;2023-04-01T02:27:35;99786.54;;;13.57;41.55
73936;BME280;62287;50.858;0.252;2023-04-01T02:28:08;99786.20;;;13.28;41.46
73936;BME280;62287;50.858;0.252;2023-04-01T02:28:40;99784.73;;;13.57;41.49
73936;BME280;62287;50.858;0.252;2023-04-01T02:29:13;99783.30;;;12.98;41.55
73936;BME280;62287;50.858;0.252;2023-04-01T02:29:45;99785.11;;;13.28;41.51
73936;BME280;62287;50.858;0.252;2023-04-01T02:30:17;99787.36;;;13.69;41.44
73936;BME280;62287;50.858;0.252;2023-04-01T02:30:49;99786.15;;;12.91;41.50
73936;BME280;62287;50.858;0.252;2023-04-01T02:31:21;99787.11;;;13.03;41.55
73936;BME280;62287;50.858;0.252;2023-04-01T02:31:54;99787.76;;;13.46;41.51
73936;BME280;62287;50.858;0.252;2023-04-01T02:32:26;99790.49;;;13.23;41.53
73936;BME280;62287;50.858;0.252;2023-04-01T02:32:59;99790.85;;;13.01;41.53
73936;BME280;62287;50.858;0.252;2023-04-01T02:33:31;99787.92;;;12.77;41.59
73936;BME280;62287;50.858;0.252;2023-04-01T02:34:03;99787.65;;;12.87;41.60
73936;BME280;62287;50.858;0.252;2023-04-01T02:34:35;99792.21;;;13.30;41.50
73936;BME280;62287;50.858;0.252;2023-04-01T02:35:10;99789.63;;;13.38;41.49
73936;BME280;62287;50.858;0.252;2023-04-01T02:35:42;99793.19;;;13.18;41.45
73936;BME280;62287;50.858;0.252;2023-04-01T02:36:14;99790.53;;;13.48;41.41
73936;BME280;62287;50.858;0.252;2023-04-01T02:36:47;99790.90;;;12.96;41.45
73936;BME280;62287;50.858;0.252;2023-04-01T02:37:18;99793.05;;;12.85;41.52
73936;BME280;62287;50.858;0.252;2023-04-01T02:37:50;99793.76;;;13.05;41.51
73936;BME280;62287;50.858;0.252;2023-04-01T02:38:22;99793.04;;;13.58;41.55
73936;BME280;62287;50.858;0.252;2023-04-01T02:38:54;99791.92;;;13.40;41.49
73936;BME280;62287;50.858;0.252;2023-04-01T02:39:26;99797.90;;;13.07;41.46
73936;BME280;62287;50.858;0.252;2023-04-01T02:39:59;99793.24;;;13.71;41.49
73936;BME280;62287;50.858;0.252;2023-04-01T02:40:42;99794.69;;;13.37;41.46
73936;BME280;62287;50.858;0.252;2023-04-01T02:41:13;99796.10;;;13.56;41.45
73936;BME280;62287;50.858;0.252;2023-04-01T02:41:45;99796.90;;;13.72;41.45
73936;BME280;62287;50.858;0.252;2023-04-01T02:42:16;99796.31;;;13.14;41.40
73936;BME280;62287;50.858;0.252;2023-04-01T02:42:47;99794.24;;;13.11;41.45
73936;BME280;62287;50.858;0.252;2023-04-01T02:43:18;99796.20;;;13.39;41.27
73936;BME280;62287;50.858;0.252;2023-04-01T02:43:49;99797.60;;;13.53;41.35
73936;BME280;62287;50.858;0.252;2023-04-01T02:44:20;99798.35;;;13.56;41.45
73936;BME280;62287;50.858;0.252;2023-04-01T02:44:51;99797.91;;;13.97;41.28
73936;BME280;62287;50.858;0.252;2023-04-01T02:45:22;99798.93;;;13.45;41.34
73936;BME280;62287;50.858;0.252;2023-04-01T02:45:53;99799.22;;;13.87;41.39
73936;BME280;62287;50.858;0.252;2023-04-01T02:46:25;99797.87;;;13.03;41.40
73936;BME280;62287;50.858;0.252;2023-04-01T02:46:56;99798.04;;;13.14;41.42
73936;BME280;62287;50.858;0.252;2023-04-01T02:47:26;99799.41;;;13.16;41.41
73936;BME280;62287;50.858;0.252;2023-04-01T02:47:57;99800.44;;;13.36;41.46
73936;BME280;62287;50.858;0.252;2023-04-01T02:48:29;99802.16;;;13.07;41.39
73936;BME280;62287;50.858;0.252;2023-04-01T02:49:00;99801.51;;;13.71;41.25
73936;BME280;62287;50.858;0.252;2023-04-01T02:49:31;99800.09;;;13.28;41.23
73936;BME280;62287;50.858;0.252;2023-04-01T02:50:04;99799.76;;;13.51;41.35
73936;BME280;62287;50.858;0.252;2023-04-01T02:50:35;99798.89;;;13.93;41.41
73936;BME280;62287;50.858;0.252;2023-04-01T02:51:06;99802.39;;;13.01;41.42
73936;BME280;62287;50.858;0.252;2023-04-01T02:51:37;99801.11;;;13.22;41.41
73936;BME280;62287;50.858;0.252;2023-04-01T02:52:08;99802.73;;;13.20;41.44
73936;BME280;62287;50.858;0.252;2023-04-01T02:52:39;99801.07;;;13.51;41.45
73936;BME280;62287;50.858;0.252;2023-04-01T02:53:10;99802.15;;;13.73;41.30
73936;BME280;62287;50.858;0.252;2023-04-01T02:53:41;99800.46;;;13.74;41.22
73936;BME280;62287;50.858;0.252;2023-04-01T02:54:12;99804.06;;;13.80;41.32
73936;BME280;62287;50.858;0.252;2023-04-01T02:54:43;99804.49;;;13.55;41.33
73936;BME280;62287;50.858;0.252;2023-04-01T02:55:14;99803.04;;;13.58;41.30
73936;BME280;62287;50.858;0.252;2023-04-01T02:55:45;99805.25;;;13.13;41.37
73936;BME280;62287;50.858;0.252;2023-04-01T02:56:15;99806.95;;;13.49;41.37
73936;BME280;62287;50.858;0.252;2023-04-01T02:56:47;99806.45;;;13.02;41.40
73936;BME280;62287;50.858;0.252;2023-04-01T02:57:18;99805.58;;;13.59;41.30
73936;BME280;62287;50.858;0.252;2023-04-01T02:57:49;99803.71;;;13.54;41.30
73936;BME280;62287;50.858;0.252;2023-04-01T02:58:20;99807.17;;;12.92;41.49
73936;BME280;62287;50.858;0.252;2023-04-01T02:58:51;99806.68;;;13.04;41.49
73936;BME280;62287;50.858;0.252;2023-04-01T02:59:22;99805.53;;;13.72;41.44
73936;BME280;62287;50.858;0.252;2023-04-01T02:59:53;99806.00;;;13.74;41.39
73936;BME280;62287;50.858;0.252;2023-04-01T03:00:24;99806.52;;;13.11;41.39
73936;BME280;62287;50.858;0.252;2023-04-01T03:00:55;99807.58;;;13.74;41.49